sensor_id;sensor_type;location;lat;lon;timestamp;temperature;humidity
7516;DHT22;3799;47.184;8.538;2023-07-30T00:01:46;19.30;99.90
7516;DHT22;3799;47.184;8.538;2023-07-30T00:04:15;19.30;99.90
7516;DHT22;3799;47.184;8.538;2023-07-30T00:06:42;19.20;99.90
7516;DHT22;3799;47.184;8.538;2023-07-30T00:09:09;19.10;99.90
7516;DHT22;3799;47.184;8.538;2023-07-30T00:11:39;19.00;99.90
7516;DHT22;3799;47.184;8.538;2023-07-30T00:14:06;19.10;99.90
7516;DHT22;3799;47.184;8.538;2023-07-30T00:16:33;19.40;99.90
7516;DHT22;3799;47.184;8.538;2023-07-30T00:19:08;19.20;99.90
7516;DHT22;3799;47.184;8.538;2023-07-30T00:21:35;19.20;99.90
7516;DHT22;3799;47.184;8.538;2023-07-30T00:24:03;18.80;99.90
7516;DHT22;3799;47.184;8.538;2023-07-30T00:26:31;18.90;99.90
7516;DHT22;3799;47.184;8.538;2023-07-30T00:28:58;18.70;99.90
7516;DHT22;3799;47.184;8.538;2023-07-30T00:31:25;18.80;99.90
7516;DHT22;3799;47.184;8.538;2023-07-30T00:33:52;18.90;99.90
7516;DHT22;3799;47.184;8.538;2023-07-30T00:36:19;19.00;99.90
7516;DHT22;3799;47.184;8.538;2023-07-30T00:38:46;18.80;99.90
7516;DHT22;3799;47.184;8.538;2023-07-30T00:41:13;18.80;99.90
7516;DHT22;3799;47.184;8.538;2023-07-30T00:43:41;18.80;99.90
7516;DHT22;3799;47.184;8.538;2023-07-30T00:46:13;19.00;99.90
7516;DHT22;3799;47.184;8.538;2023-07-30T00:48:43;19.10;99.90
7516;DHT22;3799;47.184;8.538;2023-07-30T00:51:14;18.90;99.90
7516;DHT22;3799;47.184;8.538;2023-07-30T00:53:42;19.10;99.90
7516;DHT22;3799;47.184;8.538;2023-07-30T00:56:09;19.20;99.90
7516;DHT22;3799;47.184;8.538;2023-07-30T00:58:36;19.00;99.90
7516;DHT22;3799;47.184;8.538;2023-07-30T01:01:03;19.30;99.90
7516;DHT22;3799;47.184;8.538;2023-07-30T01:03:31;19.10;99.90
7516;DHT22;3799;47.184;8.538;2023-07-30T01:06:01;19.10;99.90
7516;DHT22;3799;47.184;8.538;2023-07-30T01:08:29;19.00;99.90
7516;DHT22;3799;47.184;8.538;2023-07-30T01:10:57;19.20;99.90
7516;DHT22;3799;47.184;8.538;2023-07-30T01:13:26;19.10;99.90
7516;DHT22;3799;47.184;8.538;2023-07-30T01:15:54;19.10;99.90
7516;DHT22;3799;47.184;8.538;2023-07-30T01:18:21;19.30;99.90
7516;DHT22;3799;47.184;8.538;2023-07-30T01:20:58;19.20;99.90
7516;DHT22;3799;47.184;8.538;2023-07-30T01:23:26;19.00;99.90
7516;DHT22;3799;47.184;8.538;2023-07-30T01:26:06;19.00;99.90
7516;DHT22;3799;47.184;8.538;2023-07-30T01:28:37;19.20;99.90
7516;DHT22;3799;47.184;8.538;2023-07-30T01:31:06;19.10;99.90
7516;DHT22;3799;47.184;8.538;2023-07-30T01:33:35;18.90;99.90
7516;DHT22;3799;47.184;8.538;2023-07-30T01:36:04;19.00;99.90
7516;DHT22;3799;47.184;8.538;2023-07-30T01:38:31;19.10;99.90
7516;DHT22;3799;47.184;8.538;2023-07-30T01:41:01;19.20;99.90
7516;DHT22;3799;47.184;8.538;2023-07-30T01:43:28;18.90;99.90
7516;DHT22;3799;47.184;8.538;2023-07-30T01:45:58;18.90;99.90
7516;DHT22;3799;47.184;8.538;2023-07-30T01:48:27;18.70;99.90
7516;DHT22;3799;47.184;8.538;2023-07-30T01:50:56;19.00;99.90
7516;DHT22;3799;47.184;8.538;2023-07-30T01:53:23;19.10;99.90
7516;DHT22;3799;47.184;8.538;2023-07-30T01:55:50;19.00;99.90
7516;DHT22;3799;47.184;8.538;2023-07-30T01:58:18;18.80;99.90
7516;DHT22;3799;47.184;8.538;2023-07-30T02:00:45;18.70;99.90
7516;DHT22;3799;47.184;8.538;2023-07-30T02:03:12;18.70;99.90
7516;DHT22;3799;47.184;8.538;2023-07-30T02:05:40;19.00;99.90
7516;DHT22;3799;47.184;8.538;2023-07-30T02:08:08;18.80;99.90
7516;DHT22;3799;47.184;8.538;2023-07-30T02:10:36;18.80;99.90
7516;DHT22;3799;47.184;8.538;2023-07-30T02:13:03;18.80;99.90
7516;DHT22;3799;47.184;8.538;2023-07-30T02:15:30;18.60;99.90
7516;DHT22;3799;47.184;8.538;2023-07-30T02:17:58;18.90;99.90
7516;DHT22;3799;47.184;8.538;2023-07-30T02:20:25;18.30;99.90
7516;DHT22;3799;47.184;8.538;2023-07-30T02:22:52;18.40;99.90
7516;DHT22;3799;47.184;8.538;2023-07-30T02:25:23;18.60;99.90
7516;DHT22;3799;47.184;8.538;2023-07-30T02:27:50;18.40;99.90
7516;DHT22;3799;47.184;8.538;2023-07-30T02:30:18;18.30;99.90
7516;DHT22;3799;47.184;8.538;2023-07-30T02:32:45;18.30;99.90
7516;DHT22;3799;47.184;8.538;2023-07-30T02:35:12;18.40;99.90
7516;DHT22;3799;47.184;8.538;2023-07-30T02:37:39;18.40;99.90
7516;DHT22;3799;47.184;8.538;2023-07-30T02:40:07;18.60;99.90
7516;DHT22;3799;47.184;8.538;2023-07-30T02:42:39;18.40;99.90
7516;DHT22;3799;47.184;8.538;2023-07-30T02:45:09;18.30;99.90
7516;DHT22;3799;47.184;8.538;2023-07-30T02:47:36;18.50;99.90
7516;DHT22;3799;47.184;8.538;2023-07-30T02:50:04;18.40;99.90
7516;DHT22;3799;47.184;8.538;2023-07-30T02:52:33;18.60;99.90
7516;DHT22;3799;47.184;8.538;2023-07-30T02:55:00;18.50;99.90
7516;DHT22;3799;47.184;8.538;2023-07-30T02:57:29;18.80;99.90
7516;DHT22;3799;47.184;8.538;2023-07-30T02:59:57;18.40;99.90
7516;DHT22;3799;47.184;8.538;2023-07-30T03:02:24;18.40;99.90
7516;DHT22;3799;47.184;8.538;2023-07-30T03:04:51;18.30;99.90
7516;DHT22;3799;47.184;8.538;2023-07-30T03:07:22;18.50;99.90
7516;DHT22;3799;47.184;8.538;2023-07-30T03:09:52;18.40;99.90
7516;DHT22;3799;47.184;8.538;2023-07-30T03:12:20;18.30;99.90
7516;DHT22;3799;47.184;8.538;2023-07-30T03:14:47;18.40;99.90
7516;DHT22;3799;47.184;8.538;2023-07-30T03:17:31;18.50;99.90
7516;DHT22;3799;47.184;8.538;2023-07-30T03:19:58;18.40;99.90
7516;DHT22;3799;47.184;8.538;2023-07-30T03:22:28;18.40;99.90
7516;DHT22;3799;47.184;8.538;2023-07-30T03:24:56;18.40;99.90
7516;DHT22;3799;47.184;8.538;2023-07-30T03:27:24;18.20;99.90
7516;DHT22;3799;47.184;8.538;2023-07-30T03:29:51;18.30;99.90
7516;DHT22;3799;47.184;8.538;2023-07-30T03:32:20;18.20;99.90
7516;DHT22;3799;47.184;8.538;2023-07-30T03:34:47;18.40;99.90
7516;DHT22;3799;47.184;8.538;2023-07-30T03:37:14;18.50;99.90
7516;DHT22;3799;47.184;8.538;2023-07-30T03:39:42;18.00;99.90
7516;DHT22;3799;47.184;8.538;2023-07-30T03:42:09;18.50;99.90
7516;DHT22;3799;47.184;8.538;2023-07-30T03:44:36;18.20;99.90
7516;DHT22;3799;47.184;8.538;2023-07-30T03:47:04;18.20;99.90
7516;DHT22;3799;47.184;8.538;2023-07-30T03:49:31;18.00;99.90
7516;DHT22;3799;47.184;8.538;2023-07-30T03:52:02;18.20;99.90
7516;DHT22;3799;47.184;8.538;2023-07-30T03:54:29;18.10;99.90
7516;DHT22;3799;47.184;8.538;2023-07-30T03:56:56;18.10;99.90
7516;DHT22;3799;47.184;8.538;2023-07-30T03:59:23;18.10;99.90
7516;DHT22;3799;47.184;8.538;2023-07-30T04:01:50;18.10;99.90
7516;DHT22;3799;47.184;8.538;2023-07-30T04:04:21;18.50;99.90
7516;DHT22;3799;47.184;8.538;2023-07-30T04:06:48;18.20;99.90
7516;DHT22;3799;47.184;8.538;2023-07-30T04:09:15;18.30;99.90
7516;DHT22;3799;47.184;8.538;2023-07-30T04:11:43;18.30;99.90
7516;DHT22;3799;47.184;8.538;2023-07-30T04:14:10;18.20;99.90
7516;DHT22;3799;47.184;8.538;2023-07-30T04:16:38;18.30;99.90
7516;DHT22;3799;47.184;8.538;2023-07-30T04:19:09;18.10;99.90
7516;DHT22;3799;47.184;8.538;2023-07-30T04:21:39;18.00;99.90
7516;DHT22;3799;47.184;8.538;2023-07-30T04:24:09;18.20;99.90
7516;DHT22;3799;47.184;8.538;2023-07-30T04:26:36;18.10;99.90
7516;DHT22;3799;47.184;8.538;2023-07-30T04:29:03;18.00;99.90
7516;DHT22;3799;47.184;8.538;2023-07-30T04:31:30;18.20;99.90
7516;DHT22;3799;47.184;8.538;2023-07-30T04:33:59;18.30;99.90
7516;DHT22;3799;47.184;8.538;2023-07-30T04:36:26;18.30;99.90
7516;DHT22;3799;47.184;8.538;2023-07-30T04:38:57;18.20;99.90
7516;DHT22;3799;47.184;8.538;2023-07-30T04:41:24;18.20;99.90
7516;DHT22;3799;47.184;8.538;2023-07-30T04:43:51;18.30;99.90
7516;DHT22;3799;47.184;8.538;2023-07-30T04:46:20;18.30;99.90
7516;DHT22;3799;47.184;8.538;2023-07-30T04:48:48;18.70;99.90
7516;DHT22;3799;47.184;8.538;2023-07-30T04:51:15;18.50;99.90
7516;DHT22;3799;47.184;8.538;2023-07-30T04:53:42;18.90;99.90
7516;DHT22;3799;47.184;8.538;2023-07-30T04:56:09;18.90;99.90
7516;DHT22;3799;47.184;8.538;2023-07-30T04:58:39;18.90;99.90
7516;DHT22;3799;47.184;8.538;2023-07-30T05:03:49;18.90;99.90
7516;DHT22;3799;47.184;8.538;2023-07-30T05:06:16;19.10;99.90
7516;DHT22;3799;47.184;8.538;2023-07-30T05:08:44;19.10;99.90
7516;DHT22;3799;47.184;8.538;2023-07-30T05:11:11;19.40;99.90
7516;DHT22;3799;47.184;8.538;2023-07-30T05:13:40;19.30;99.90
7516;DHT22;3799;47.184;8.538;2023-07-30T05:16:08;19.40;99.90
7516;DHT22;3799;47.184;8.538;2023-07-30T05:18:35;19.50;99.90
7516;DHT22;3799;47.184;8.538;2023-07-30T05:21:02;19.50;99.90
7516;DHT22;3799;47.184;8.538;2023-07-30T05:23:29;19.50;99.90
7516;DHT22;3799;47.184;8.538;2023-07-30T05:25:56;19.50;99.90
7516;DHT22;3799;47.184;8.538;2023-07-30T05:28:23;19.50;99.90
7516;DHT22;3799;47.184;8.538;2023-07-30T05:30:56;19.70;99.90
7516;DHT22;3799;47.184;8.538;2023-07-30T05:33:26;19.50;99.90
7516;DHT22;3799;47.184;8.538;2023-07-30T05:35:54;19.60;99.90
7516;DHT22;3799;47.184;8.538;2023-07-30T05:38:21;19.40;99.90
7516;DHT22;3799;47.184;8.538;2023-07-30T05:40:48;19.50;99.90
7516;DHT22;3799;47.184;8.538;2023-07-30T05:43:16;19.70;99.90
7516;DHT22;3799;47.184;8.538;2023-07-30T05:45:43;19.90;99.90
7516;DHT22;3799;47.184;8.538;2023-07-30T05:48:13;20.30;99.90
7516;DHT22;3799;47.184;8.538;2023-07-30T05:50:40;20.20;99.90
7516;DHT22;3799;47.184;8.538;2023-07-30T05:53:07;20.40;99.90
7516;DHT22;3799;47.184;8.538;2023-07-30T05:55:34;20.50;99.90
7516;DHT22;3799;47.184;8.538;2023-07-30T05:58:02;20.70;99.90
7516;DHT22;3799;47.184;8.538;2023-07-30T06:00:32;20.80;99.90
7516;DHT22;3799;47.184;8.538;2023-07-30T06:03:02;20.90;99.90
7516;DHT22;3799;47.184;8.538;2023-07-30T06:05:30;21.00;99.90
7516;DHT22;3799;47.184;8.538;2023-07-30T06:07:57;21.00;99.90
7516;DHT22;3799;47.184;8.538;2023-07-30T06:10:26;21.20;99.90
7516;DHT22;3799;47.184;8.538;2023-07-30T06:12:53;21.30;99.90
7516;DHT22;3799;47.184;8.538;2023-07-30T06:15:20;21.30;99.90
7516;DHT22;3799;47.184;8.538;2023-07-30T06:17:47;21.40;99.90
7516;DHT22;3799;47.184;8.538;2023-07-30T06:20:14;21.40;99.90
7516;DHT22;3799;47.184;8.538;2023-07-30T06:22:42;21.40;99.90
7516;DHT22;3799;47.184;8.538;2023-07-30T06:25:09;21.40;99.90
7516;DHT22;3799;47.184;8.538;2023-07-30T06:27:36;21.40;99.90
7516;DHT22;3799;47.184;8.538;2023-07-30T06:30:04;21.30;99.90
7516;DHT22;3799;47.184;8.538;2023-07-30T06:32:32;21.20;99.90
7516;DHT22;3799;47.184;8.538;2023-07-30T06:34:59;21.20;99.90
7516;DHT22;3799;47.184;8.538;2023-07-30T06:37:26;21.20;99.90
7516;DHT22;3799;47.184;8.538;2023-07-30T06:39:55;21.20;99.90
7516;DHT22;3799;47.184;8.538;2023-07-30T06:42:24;21.30;99.90
7516;DHT22;3799;47.184;8.538;2023-07-30T06:44:51;21.40;99.90
7516;DHT22;3799;47.184;8.538;2023-07-30T06:47:19;21.40;99.90
7516;DHT22;3799;47.184;8.538;2023-07-30T06:49:46;21.40;99.90
7516;DHT22;3799;47.184;8.538;2023-07-30T06:52:13;21.30;99.90
7516;DHT22;3799;47.184;8.538;2023-07-30T06:54:40;21.20;99.90
7516;DHT22;3799;47.184;8.538;2023-07-30T06:57:07;21.10;99.90
7516;DHT22;3799;47.184;8.538;2023-07-30T06:59:35;21.00;99.90
7516;DHT22;3799;47.184;8.538;2023-07-30T07:02:02;21.00;99.90
7516;DHT22;3799;47.184;8.538;2023-07-30T07:04:30;21.00;99.90
7516;DHT22;3799;47.184;8.538;2023-07-30T07:06:57;21.00;99.90
7516;DHT22;3799;47.184;8.538;2023-07-30T07:09:27;21.00;99.90
7516;DHT22;3799;47.184;8.538;2023-07-30T07:11:54;21.00;99.90
7516;DHT22;3799;47.184;8.538;2023-07-30T07:14:22;21.00;99.90
7516;DHT22;3799;47.184;8.538;2023-07-30T07:16:49;21.00;99.90
7516;DHT22;3799;47.184;8.538;2023-07-30T07:19:16;21.00;99.90
7516;DHT22;3799;47.184;8.538;2023-07-30T07:21:46;21.00;99.90
7516;DHT22;3799;47.184;8.538;2023-07-30T07:24:16;21.00;99.90
7516;DHT22;3799;47.184;8.538;2023-07-30T07:26:43;20.70;99.90
7516;DHT22;3799;47.184;8.538;2023-07-30T07:29:11;21.10;99.90
7516;DHT22;3799;47.184;8.538;2023-07-30T07:31:39;21.20;99.90
7516;DHT22;3799;47.184;8.538;2023-07-30T07:34:07;21.10;99.90
7516;DHT22;3799;47.184;8.538;2023-07-30T07:36:37;21.20;99.90
7516;DHT22;3799;47.184;8.538;2023-07-30T07:39:05;20.90;99.90
7516;DHT22;3799;47.184;8.538;2023-07-30T07:41:34;21.10;99.90
7516;DHT22;3799;47.184;8.538;2023-07-30T07:44:03;21.20;99.90
7516;DHT22;3799;47.184;8.538;2023-07-30T07:46:30;21.20;99.90
7516;DHT22;3799;47.184;8.538;2023-07-30T07:48:58;21.20;99.90
7516;DHT22;3799;47.184;8.538;2023-07-30T07:51:28;21.30;99.90
7516;DHT22;3799;47.184;8.538;2023-07-30T07:53:55;21.40;99.90
7516;DHT22;3799;47.184;8.538;2023-07-30T07:56:22;21.60;99.90
7516;DHT22;3799;47.184;8.538;2023-07-30T07:58:50;21.70;99.90
7516;DHT22;3799;47.184;8.538;2023-07-30T08:01:17;21.80;99.90
7516;DHT22;3799;47.184;8.538;2023-07-30T08:03:44;21.80;99.90
7516;DHT22;3799;47.184;8.538;2023-07-30T08:06:12;21.90;99.90
7516;DHT22;3799;47.184;8.538;2023-07-30T08:08:39;22.00;99.90
7516;DHT22;3799;47.184;8.538;2023-07-30T08:11:07;22.00;99.90
7516;DHT22;3799;47.184;8.538;2023-07-30T08:13:42;22.10;99.90
7516;DHT22;3799;47.184;8.538;2023-07-30T08:16:09;22.10;99.90
7516;DHT22;3799;47.184;8.538;2023-07-30T08:18:36;22.20;99.90
7516;DHT22;3799;47.184;8.538;2023-07-30T08:21:04;22.20;99.90
7516;DHT22;3799;47.184;8.538;2023-07-30T08:23:32;22.20;99.90
7516;DHT22;3799;47.184;8.538;2023-07-30T08:25:59;22.10;99.90
7516;DHT22;3799;47.184;8.538;2023-07-30T08:28:26;22.20;99.90
7516;DHT22;3799;47.184;8.538;2023-07-30T08:31:01;22.20;99.90
7516;DHT22;3799;47.184;8.538;2023-07-30T08:33:32;22.20;99.90
7516;DHT22;3799;47.184;8.538;2023-07-30T08:35:59;22.20;99.90
7516;DHT22;3799;47.184;8.538;2023-07-30T08:38:32;22.30;99.90
7516;DHT22;3799;47.184;8.538;2023-07-30T08:40:59;22.30;99.90
7516;DHT22;3799;47.184;8.538;2023-07-30T08:43:27;22.40;99.90
7516;DHT22;3799;47.184;8.538;2023-07-30T08:45:54;22.30;99.90
7516;DHT22;3799;47.184;8.538;2023-07-30T08:48:21;22.30;99.90
7516;DHT22;3799;47.184;8.538;2023-07-30T08:50:49;22.20;99.90
7516;DHT22;3799;47.184;8.538;2023-07-30T08:53:17;22.10;99.90
7516;DHT22;3799;47.184;8.538;2023-07-30T08:55:45;22.00;99.90
7516;DHT22;3799;47.184;8.538;2023-07-30T08:58:13;21.90;99.90
7516;DHT22;3799;47.184;8.538;2023-07-30T09:00:42;21.80;99.90
7516;DHT22;3799;47.184;8.538;2023-07-30T09:03:10;21.60;99.90
7516;DHT22;3799;47.184;8.538;2023-07-30T09:05:39;21.50;99.90
7516;DHT22;3799;47.184;8.538;2023-07-30T09:08:06;21.50;99.90
7516;DHT22;3799;47.184;8.538;2023-07-30T09:10:35;21.50;99.90
7516;DHT22;3799;47.184;8.538;2023-07-30T09:13:02;21.50;99.90
7516;DHT22;3799;47.184;8.538;2023-07-30T09:15:31;21.50;99.90
7516;DHT22;3799;47.184;8.538;2023-07-30T09:18:00;21.50;99.90
7516;DHT22;3799;47.184;8.538;2023-07-30T09:20:38;21.40;99.90
7516;DHT22;3799;47.184;8.538;2023-07-30T09:23:09;21.40;99.90
7516;DHT22;3799;47.184;8.538;2023-07-30T09:25:37;21.30;99.90
7516;DHT22;3799;47.184;8.538;2023-07-30T09:28:10;21.20;99.90
7516;DHT22;3799;47.184;8.538;2023-07-30T09:30:37;21.30;99.90
7516;DHT22;3799;47.184;8.538;2023-07-30T09:33:04;21.30;99.90
7516;DHT22;3799;47.184;8.538;2023-07-30T09:35:33;21.30;99.90
7516;DHT22;3799;47.184;8.538;2023-07-30T09:38:06;21.30;99.90
7516;DHT22;3799;47.184;8.538;2023-07-30T09:40:36;21.40;99.90
7516;DHT22;3799;47.184;8.538;2023-07-30T09:43:04;21.50;99.90
7516;DHT22;3799;47.184;8.538;2023-07-30T09:45:36;21.50;99.90
7516;DHT22;3799;47.184;8.538;2023-07-30T09:48:07;21.50;99.90
7516;DHT22;3799;47.184;8.538;2023-07-30T09:50:35;21.50;99.90
7516;DHT22;3799;47.184;8.538;2023-07-30T09:53:03;21.40;99.90
7516;DHT22;3799;47.184;8.538;2023-07-30T09:55:31;21.40;99.90
7516;DHT22;3799;47.184;8.538;2023-07-30T09:57:59;21.30;99.90
7516;DHT22;3799;47.184;8.538;2023-07-30T10:00:27;21.30;99.90
7516;DHT22;3799;47.184;8.538;2023-07-30T10:02:58;21.30;99.90
7516;DHT22;3799;47.184;8.538;2023-07-30T10:05:30;21.20;99.90
7516;DHT22;3799;47.184;8.538;2023-07-30T10:08:04;21.20;99.90
7516;DHT22;3799;47.184;8.538;2023-07-30T10:10:35;21.10;99.90
7516;DHT22;3799;47.184;8.538;2023-07-30T10:13:06;21.10;99.90
7516;DHT22;3799;47.184;8.538;2023-07-30T10:15:35;21.10;99.90
7516;DHT22;3799;47.184;8.538;2023-07-30T10:18:02;21.10;99.90
7516;DHT22;3799;47.184;8.538;2023-07-30T10:20:31;21.10;99.90
7516;DHT22;3799;47.184;8.538;2023-07-30T10:22:59;21.10;99.90
7516;DHT22;3799;47.184;8.538;2023-07-30T10:25:46;21.20;99.90
7516;DHT22;3799;47.184;8.538;2023-07-30T10:28:27;21.30;99.90
7516;DHT22;3799;47.184;8.538;2023-07-30T10:31:00;21.40;99.90
7516;DHT22;3799;47.184;8.538;2023-07-30T10:33:52;21.50;99.90
7516;DHT22;3799;47.184;8.538;2023-07-30T10:36:36;21.80;99.90
7516;DHT22;3799;47.184;8.538;2023-07-30T10:39:20;22.10;99.90
7516;DHT22;3799;47.184;8.538;2023-07-30T10:41:49;22.50;99.90
7516;DHT22;3799;47.184;8.538;2023-07-30T10:44:27;22.80;99.90
7516;DHT22;3799;47.184;8.538;2023-07-30T10:46:55;23.00;99.90
7516;DHT22;3799;47.184;8.538;2023-07-30T10:49:24;23.20;99.90
7516;DHT22;3799;47.184;8.538;2023-07-30T10:51:52;23.30;99.90
7516;DHT22;3799;47.184;8.538;2023-07-30T10:54:22;23.40;99.90
7516;DHT22;3799;47.184;8.538;2023-07-30T10:56:50;23.40;99.80
7516;DHT22;3799;47.184;8.538;2023-07-30T10:59:19;23.40;99.90
7516;DHT22;3799;47.184;8.538;2023-07-30T11:01:46;23.40;98.80
7516;DHT22;3799;47.184;8.538;2023-07-30T11:04:15;23.40;99.50
7516;DHT22;3799;47.184;8.538;2023-07-30T11:06:47;23.60;99.90
7516;DHT22;3799;47.184;8.538;2023-07-30T11:09:33;23.60;99.50
7516;DHT22;3799;47.184;8.538;2023-07-30T11:12:03;23.40;99.40
7516;DHT22;3799;47.184;8.538;2023-07-30T11:14:31;23.40;99.90
7516;DHT22;3799;47.184;8.538;2023-07-30T11:17:08;23.40;99.90
7516;DHT22;3799;47.184;8.538;2023-07-30T11:19:43;23.50;99.10
7516;DHT22;3799;47.184;8.538;2023-07-30T11:22:10;23.50;98.60
7516;DHT22;3799;47.184;8.538;2023-07-30T11:24:37;23.50;99.90
7516;DHT22;3799;47.184;8.538;2023-07-30T11:27:10;23.70;99.90
7516;DHT22;3799;47.184;8.538;2023-07-30T11:29:38;23.80;98.60
7516;DHT22;3799;47.184;8.538;2023-07-30T11:32:05;23.80;98.10
7516;DHT22;3799;47.184;8.538;2023-07-30T11:34:33;24.10;98.80
7516;DHT22;3799;47.184;8.538;2023-07-30T11:37:06;24.40;97.10
7516;DHT22;3799;47.184;8.538;2023-07-30T11:39:33;24.60;95.50
7516;DHT22;3799;47.184;8.538;2023-07-30T11:42:01;24.80;95.80
7516;DHT22;3799;47.184;8.538;2023-07-30T11:44:33;25.10;94.50
7516;DHT22;3799;47.184;8.538;2023-07-30T11:47:01;25.50;93.10
7516;DHT22;3799;47.184;8.538;2023-07-30T11:49:31;25.90;91.70
7516;DHT22;3799;47.184;8.538;2023-07-30T11:52:08;26.10;88.60
7516;DHT22;3799;47.184;8.538;2023-07-30T11:54:36;26.30;84.90
7516;DHT22;3799;47.184;8.538;2023-07-30T11:57:03;26.20;81.40
7516;DHT22;3799;47.184;8.538;2023-07-30T11:59:31;26.10;82.30
7516;DHT22;3799;47.184;8.538;2023-07-30T12:01:59;25.90;82.30
7516;DHT22;3799;47.184;8.538;2023-07-30T12:04:52;25.80;83.60
7516;DHT22;3799;47.184;8.538;2023-07-30T12:07:40;25.70;80.80
7516;DHT22;3799;47.184;8.538;2023-07-30T12:10:09;25.50;80.10
7516;DHT22;3799;47.184;8.538;2023-07-30T12:12:43;25.40;78.20
7516;DHT22;3799;47.184;8.538;2023-07-30T12:15:11;25.30;78.40
7516;DHT22;3799;47.184;8.538;2023-07-30T12:17:39;25.20;78.60
7516;DHT22;3799;47.184;8.538;2023-07-30T12:20:07;25.10;76.60
7516;DHT22;3799;47.184;8.538;2023-07-30T12:22:35;25.10;75.50
7516;DHT22;3799;47.184;8.538;2023-07-30T12:25:02;25.20;74.20
7516;DHT22;3799;47.184;8.538;2023-07-30T12:27:32;25.20;73.60
7516;DHT22;3799;47.184;8.538;2023-07-30T12:29:59;25.20;73.20
7516;DHT22;3799;47.184;8.538;2023-07-30T12:32:26;25.40;71.70
7516;DHT22;3799;47.184;8.538;2023-07-30T12:34:55;25.70;70.40
7516;DHT22;3799;47.184;8.538;2023-07-30T12:37:22;26.10;72.10
7516;DHT22;3799;47.184;8.538;2023-07-30T12:39:50;26.70;69.80
7516;DHT22;3799;47.184;8.538;2023-07-30T12:42:17;27.30;65.00
7516;DHT22;3799;47.184;8.538;2023-07-30T12:44:44;27.70;62.40
7516;DHT22;3799;47.184;8.538;2023-07-30T12:47:13;28.00;62.00
7516;DHT22;3799;47.184;8.538;2023-07-30T12:49:41;28.00;58.10
7516;DHT22;3799;47.184;8.538;2023-07-30T12:52:08;28.00;58.70
7516;DHT22;3799;47.184;8.538;2023-07-30T12:54:35;28.00;57.90
7516;DHT22;3799;47.184;8.538;2023-07-30T12:57:03;27.70;57.00
7516;DHT22;3799;47.184;8.538;2023-07-30T12:59:30;27.30;57.30
7516;DHT22;3799;47.184;8.538;2023-07-30T13:01:58;27.40;58.20
7516;DHT22;3799;47.184;8.538;2023-07-30T13:04:31;27.40;58.20
7516;DHT22;3799;47.184;8.538;2023-07-30T13:06:58;27.40;56.30
7516;DHT22;3799;47.184;8.538;2023-07-30T13:09:25;27.10;56.60
7516;DHT22;3799;47.184;8.538;2023-07-30T13:11:52;26.90;56.70
7516;DHT22;3799;47.184;8.538;2023-07-30T13:14:20;26.80;57.20
7516;DHT22;3799;47.184;8.538;2023-07-30T13:16:47;26.80;58.10
7516;DHT22;3799;47.184;8.538;2023-07-30T13:19:14;27.20;57.90
7516;DHT22;3799;47.184;8.538;2023-07-30T13:21:41;27.50;56.30
7516;DHT22;3799;47.184;8.538;2023-07-30T13:24:08;27.70;55.70
7516;DHT22;3799;47.184;8.538;2023-07-30T13:26:36;27.80;54.90
7516;DHT22;3799;47.184;8.538;2023-07-30T13:29:03;28.00;54.60
7516;DHT22;3799;47.184;8.538;2023-07-30T13:31:30;28.10;54.70
7516;DHT22;3799;47.184;8.538;2023-07-30T13:33:58;28.10;54.30
7516;DHT22;3799;47.184;8.538;2023-07-30T13:36:25;28.00;54.00
7516;DHT22;3799;47.184;8.538;2023-07-30T13:39:01;27.80;54.30
7516;DHT22;3799;47.184;8.538;2023-07-30T13:41:29;28.00;55.00
7516;DHT22;3799;47.184;8.538;2023-07-30T13:43:56;28.30;53.90
7516;DHT22;3799;47.184;8.538;2023-07-30T13:46:23;28.70;53.10
7516;DHT22;3799;47.184;8.538;2023-07-30T13:48:50;29.00;52.10
7516;DHT22;3799;47.184;8.538;2023-07-30T13:51:17;29.40;52.00
7516;DHT22;3799;47.184;8.538;2023-07-30T13:53:45;29.80;52.30
7516;DHT22;3799;47.184;8.538;2023-07-30T13:56:12;29.90;50.90
7516;DHT22;3799;47.184;8.538;2023-07-30T13:58:50;29.60;50.40
7516;DHT22;3799;47.184;8.538;2023-07-30T14:01:17;29.40;51.00
7516;DHT22;3799;47.184;8.538;2023-07-30T14:03:49;29.10;51.30
7516;DHT22;3799;47.184;8.538;2023-07-30T14:06:17;29.10;50.70
7516;DHT22;3799;47.184;8.538;2023-07-30T14:08:44;29.20;50.80
7516;DHT22;3799;47.184;8.538;2023-07-30T14:11:12;29.10;51.00
7516;DHT22;3799;47.184;8.538;2023-07-30T14:13:50;29.10;51.20
7516;DHT22;3799;47.184;8.538;2023-07-30T14:16:17;29.20;50.10
7516;DHT22;3799;47.184;8.538;2023-07-30T14:18:44;29.10;50.20
7516;DHT22;3799;47.184;8.538;2023-07-30T14:21:12;28.90;49.40
7516;DHT22;3799;47.184;8.538;2023-07-30T14:23:40;28.60;50.30
7516;DHT22;3799;47.184;8.538;2023-07-30T14:26:07;28.40;50.20
7516;DHT22;3799;47.184;8.538;2023-07-30T14:28:35;28.40;49.90
7516;DHT22;3799;47.184;8.538;2023-07-30T14:31:02;28.50;50.50
7516;DHT22;3799;47.184;8.538;2023-07-30T14:33:31;28.90;49.70
7516;DHT22;3799;47.184;8.538;2023-07-30T14:35:58;29.30;47.80
7516;DHT22;3799;47.184;8.538;2023-07-30T14:38:26;29.60;47.90
7516;DHT22;3799;47.184;8.538;2023-07-30T14:40:53;29.80;48.40
7516;DHT22;3799;47.184;8.538;2023-07-30T14:43:25;29.90;47.90
7516;DHT22;3799;47.184;8.538;2023-07-30T14:45:53;29.80;48.50
7516;DHT22;3799;47.184;8.538;2023-07-30T14:48:22;29.90;48.80
7516;DHT22;3799;47.184;8.538;2023-07-30T14:50:49;29.90;48.40
7516;DHT22;3799;47.184;8.538;2023-07-30T14:53:17;29.90;48.60
7516;DHT22;3799;47.184;8.538;2023-07-30T14:55:44;30.00;49.00
7516;DHT22;3799;47.184;8.538;2023-07-30T14:58:13;30.00;49.30
7516;DHT22;3799;47.184;8.538;2023-07-30T15:00:49;29.80;49.00
7516;DHT22;3799;47.184;8.538;2023-07-30T15:03:17;29.40;49.10
7516;DHT22;3799;47.184;8.538;2023-07-30T15:05:44;29.00;49.20
7516;DHT22;3799;47.184;8.538;2023-07-30T15:08:11;28.80;49.30
7516;DHT22;3799;47.184;8.538;2023-07-30T15:10:39;28.60;49.10
7516;DHT22;3799;47.184;8.538;2023-07-30T15:13:06;28.30;49.40
7516;DHT22;3799;47.184;8.538;2023-07-30T15:15:33;28.10;49.40
7516;DHT22;3799;47.184;8.538;2023-07-30T15:18:04;28.00;49.60
7516;DHT22;3799;47.184;8.538;2023-07-30T15:20:34;27.80;50.00
7516;DHT22;3799;47.184;8.538;2023-07-30T15:23:02;27.60;50.10
7516;DHT22;3799;47.184;8.538;2023-07-30T15:25:29;27.40;49.20
7516;DHT22;3799;47.184;8.538;2023-07-30T15:27:56;27.20;49.80
7516;DHT22;3799;47.184;8.538;2023-07-30T15:30:25;27.10;50.20
7516;DHT22;3799;47.184;8.538;2023-07-30T15:32:52;27.20;50.00
7516;DHT22;3799;47.184;8.538;2023-07-30T15:35:19;27.40;49.50
7516;DHT22;3799;47.184;8.538;2023-07-30T15:37:46;27.90;50.20
7516;DHT22;3799;47.184;8.538;2023-07-30T15:40:14;28.40;50.70
7516;DHT22;3799;47.184;8.538;2023-07-30T15:42:41;29.10;49.50
7516;DHT22;3799;47.184;8.538;2023-07-30T15:45:09;29.60;48.00
7516;DHT22;3799;47.184;8.538;2023-07-30T15:47:36;30.10;46.90
7516;DHT22;3799;47.184;8.538;2023-07-30T15:50:03;30.70;47.90
7516;DHT22;3799;47.184;8.538;2023-07-30T15:52:31;31.00;47.00
7516;DHT22;3799;47.184;8.538;2023-07-30T15:54:58;31.30;44.80
7516;DHT22;3799;47.184;8.538;2023-07-30T15:57:25;31.70;44.30
7516;DHT22;3799;47.184;8.538;2023-07-30T15:59:52;32.00;43.60
7516;DHT22;3799;47.184;8.538;2023-07-30T16:02:20;32.10;42.70
7516;DHT22;3799;47.184;8.538;2023-07-30T16:04:47;32.00;42.90
7516;DHT22;3799;47.184;8.538;2023-07-30T16:07:14;32.10;43.30
7516;DHT22;3799;47.184;8.538;2023-07-30T16:09:42;32.40;42.20
7516;DHT22;3799;47.184;8.538;2023-07-30T16:12:09;32.60;41.90
7516;DHT22;3799;47.184;8.538;2023-07-30T16:14:43;32.80;41.40